createdAt,value
2022-12-31T00:06:28.914Z,11.42
2022-12-31T00:36:35.444Z,11.37
2022-12-31T01:06:40.396Z,11.49
2022-12-31T01:36:44.453Z,11.49
2022-12-31T02:06:51.806Z,11.53
2022-12-31T02:36:56.306Z,12.51
2022-12-31T03:07:01.357Z,13.31
2022-12-31T03:37:05.529Z,13.38
2022-12-31T04:07:10.091Z,13.41
2022-12-31T04:37:14.144Z,13.64
2022-12-31T05:07:18.289Z,13.73
2022-12-31T05:37:22.441Z,13.82
2022-12-31T06:07:27.048Z,14.07
2022-12-31T06:37:31.071Z,14.22
2022-12-31T07:07:42.540Z,14.52
2022-12-31T07:37:52.370Z,14.59
2022-12-31T08:08:01.662Z,14.69
2022-12-31T08:38:12.900Z,14.70
2022-12-31T09:08:22.787Z,14.72
2022-12-31T09:38:31.230Z,15.00
2022-12-31T10:08:44.441Z,16.19
2022-12-31T10:38:57.334Z,15.73
2022-12-31T11:09:44.939Z,15.43
2022-12-31T11:39:51.186Z,15.61
2022-12-31T12:09:57.319Z,16.18
2022-12-31T12:40:05.510Z,22.22
2022-12-31T13:10:18.693Z,22.92
2022-12-31T13:40:28.002Z,18.95
2022-12-31T14:10:42.197Z,16.08
2022-12-31T14:40:54.159Z,14.97
2022-12-31T15:11:09.615Z,14.28
2022-12-31T15:41:27.500Z,13.90
2022-12-31T16:11:37.578Z,13.74
2022-12-31T16:41:44.404Z,13.61
2022-12-31T17:11:51.956Z,13.44
2022-12-31T17:41:57.599Z,13.39
2022-12-31T18:12:02.861Z,13.31
2022-12-31T18:42:06.979Z,13.11
2022-12-31T19:12:12.682Z,13.01
2022-12-31T19:42:16.995Z,13.03
2022-12-31T20:12:23.279Z,12.74
2022-12-31T20:42:27.630Z,12.78
2022-12-31T21:12:45.577Z,12.79
2022-12-31T21:42:49.793Z,12.76
2022-12-31T22:12:54.152Z,12.76
2022-12-31T22:42:58.237Z,12.53
2022-12-31T23:13:16.196Z,12.25
2022-12-31T23:43:22.760Z,12.06
